Terminal Aerodrome Forecast
Issued by NWS Topeka, KS

Home | Current Version | Previous Version | Text Only | Print | Product List | Glossary Off
Versions: 1 2 3 4 5 6 7 8 9 10 11 12 13 14 15 16 17 18

341
FTUS43 KTOP 251540 CCB
TAFTOP
TAF COR
KTOP 251540Z 2516/2612 16012G21KT P6SM FEW250
     FM260100 14006KT P6SM BKN130=

USA.gov is the U.S. government's official web portal to all federal, state and local government web resources and services.